createdAt,value
2018-02-16T05:42:02.483Z,0.1
2018-02-16T05:44:01.094Z,0.2
2018-02-16T05:45:01.096Z,0.3
2018-02-16T05:47:01.331Z,0.4
2018-02-16T05:48:01.092Z,0.5
2018-02-16T05:50:01.092Z,0.7
2018-02-16T05:51:01.125Z,0.8
2018-02-16T05:52:01.310Z,0.9
2018-02-16T05:53:01.096Z,1.1
2018-02-16T05:54:01.102Z,1.3
2018-02-16T05:55:01.126Z,1.5
2018-02-16T05:56:01.091Z,1.8
2018-02-16T05:57:01.325Z,2.1
2018-02-16T05:58:01.138Z,2.4
2018-02-16T05:59:01.093Z,2.8
2018-02-16T06:00:01.091Z,3.3
2018-02-16T06:01:01.101Z,4.0
2018-02-16T06:02:01.369Z,4.9
2018-02-16T06:03:01.124Z,6.0
2018-02-16T06:04:01.095Z,7.3
2018-02-16T06:05:01.101Z,8.7
2018-02-16T06:06:01.107Z,10.3
2018-02-16T06:07:01.301Z,12.2
2018-02-16T06:08:01.144Z,14.5
2018-02-16T06:09:01.096Z,17.2
2018-02-16T06:10:01.095Z,20.5
2018-02-16T06:11:01.103Z,24.6
2018-02-16T06:12:01.299Z,29.3
2018-02-16T06:13:01.120Z,35.0
2018-02-16T06:14:01.101Z,41.9
2018-02-16T06:15:01.104Z,49.8
2018-02-16T06:16:01.148Z,58.7
2018-02-16T06:17:01.329Z,68.9
2018-02-16T06:18:01.103Z,80.7
2018-02-16T06:19:01.099Z,94.6
2018-02-16T06:20:01.109Z,111.1
2018-02-16T06:21:01.104Z,130.3
2018-02-16T06:22:01.527Z,152.7
2018-02-16T06:23:01.127Z,178.7
2018-02-16T06:24:01.105Z,209.1
2018-02-16T06:25:01.128Z,243.9
2018-02-16T06:26:01.102Z,282.6
2018-02-16T06:28:01.322Z,333.9
2018-02-16T06:29:01.085Z,388.7
2018-02-16T06:30:06.087Z,449.1
2018-02-16T06:31:01.119Z,516.4
2018-02-16T06:32:01.109Z,591.2
2018-02-16T06:33:01.295Z,673.9
2018-02-16T06:34:01.093Z,764.5
2018-02-16T06:35:01.087Z,863.3
2018-02-16T06:36:01.086Z,970.9
2018-02-16T06:37:01.117Z,1091.1
2018-02-16T06:38:01.494Z,1231.1
2018-02-16T06:39:01.084Z,1369.7
2018-02-16T06:40:01.082Z,1509.7
2018-02-16T06:41:01.089Z,1659.9
2018-02-16T06:42:01.119Z,1820.6
2018-02-16T06:43:01.289Z,1992.7
2018-02-16T06:44:01.088Z,2182.4
2018-02-16T06:45:02.120Z,2376.6
2018-02-16T06:46:01.086Z,2593.3
2018-02-16T06:47:01.140Z,2782.9
2018-02-16T06:48:01.299Z,2966.7
2018-02-16T06:49:01.090Z,3169.3
2018-02-16T06:50:01.086Z,3383.3
2018-02-16T06:51:01.097Z,3597.5
2018-02-16T06:52:01.093Z,3845.4
2018-02-16T06:53:01.370Z,4105.1
2018-02-16T06:54:01.095Z,4369.1
2018-02-16T06:55:01.096Z,4650.4
2018-02-16T06:56:01.095Z,4932.4
2018-02-16T06:57:01.094Z,5242.7
2018-02-16T06:58:01.340Z,5596.2
2018-02-16T06:59:01.098Z,6012.1
2018-02-16T07:00:01.157Z,6445.1
2018-02-16T07:01:01.106Z,6798.6
2018-02-16T07:02:01.099Z,7163.3
2018-02-16T07:03:01.345Z,7553.6
2018-02-16T07:04:01.098Z,7995.5
2018-02-16T07:05:01.107Z,8459.5
2018-02-16T07:06:01.099Z,8884.1
2018-02-16T07:07:01.097Z,9257.9
2018-02-16T07:08:01.332Z,9650.7
2018-02-16T07:09:01.094Z,10114.2
2018-02-16T07:10:01.100Z,10610.7
2018-02-16T07:11:01.106Z,11055.3
2018-02-16T07:12:01.109Z,11429.9
2018-02-16T07:13:01.347Z,11761.1
2018-02-16T07:14:01.100Z,12045.2
2018-02-16T07:15:01.103Z,12342.5
2018-02-16T07:16:01.098Z,12730.3
2018-02-16T07:17:01.099Z,13155.1
2018-02-16T07:18:01.347Z,13597.9
2018-02-16T07:19:01.104Z,13974.0
2018-02-16T07:20:01.117Z,14338.8
2018-02-16T07:22:01.061Z,14962.5
2018-02-16T07:23:01.332Z,15785.1
2018-02-16T07:24:01.088Z,16619.1
2018-02-16T07:25:01.085Z,17417.0
2018-02-16T07:26:01.093Z,18101.3
2018-02-16T07:27:01.091Z,18940.6
2018-02-16T07:28:01.339Z,19614.7
2018-02-16T07:29:01.104Z,20178.7
2018-02-16T07:30:01.088Z,20806.3
2018-02-16T07:31:01.094Z,21573.7
2018-02-16T07:32:01.095Z,22215.9
2018-02-16T07:33:01.342Z,22696.7
2018-02-16T07:34:01.099Z,23036.8
2018-02-16T07:35:01.092Z,23354.3
2018-02-16T07:36:01.096Z,23810.7
2018-02-16T07:37:01.091Z,24367.3
2018-02-16T07:38:01.401Z,24878.5
2018-02-16T07:39:01.090Z,25195.5
2018-02-16T07:40:01.093Z,25792.1
2018-02-16T07:41:01.096Z,26577.9
2018-02-16T07:42:01.107Z,26981.9
2018-02-16T07:43:01.335Z,27466.7
2018-02-16T07:44:01.097Z,28007.3
2018-02-16T07:45:01.099Z,28537.5
2018-02-16T07:46:01.096Z,28711.3
2018-02-16T07:47:01.099Z,28991.5
2018-02-16T07:48:01.339Z,29475.5
2018-02-16T07:49:01.097Z,30112.8
2018-02-16T07:50:01.094Z,30784.1
2018-02-16T07:51:01.094Z,31353.3
2018-02-16T07:52:01.097Z,31740.9
2018-02-16T07:53:01.426Z,32321.1
2018-02-16T07:54:01.098Z,33167.8
2018-02-16T07:55:01.100Z,33966.9
2018-02-16T07:56:01.103Z,34389.9
2018-02-16T07:57:06.104Z,34720.5
2018-02-16T07:58:01.338Z,34968.6
2018-02-16T07:59:01.107Z,35269.0
2018-02-16T08:00:01.099Z,35508.9
2018-02-16T08:01:01.101Z,35875.5
2018-02-16T08:02:01.110Z,36209.8
2018-02-16T08:03:01.352Z,36525.2
2018-02-16T08:04:01.135Z,36735.2
2018-02-16T08:05:01.097Z,37154.9
2018-02-16T08:06:06.098Z,37924.0
2018-02-16T08:07:01.103Z,39132.3
2018-02-16T08:08:01.473Z,39785.7
2018-02-16T08:09:01.137Z,39932.1
2018-02-16T08:10:06.099Z,39705.8
2018-02-16T08:11:01.102Z,39511.5
2018-02-16T08:12:01.113Z,40082.7
2018-02-16T08:13:01.429Z,42015.8
2018-02-16T08:14:01.131Z,44066.8
2018-02-16T08:15:01.115Z,45951.4
2018-02-16T08:16:01.111Z,48020.2
2018-02-16T08:17:01.441Z,50093.7
2018-02-16T08:18:01.321Z,52118.9
2018-02-16T08:20:01.087Z,54044.4
2018-02-16T08:21:01.088Z,55880.7
2018-02-16T08:22:01.094Z,56973.7
2018-02-16T08:23:01.116Z,57414.7
2018-02-16T08:24:01.262Z,58453.3
2018-02-16T08:25:01.119Z,59861.5
2018-02-16T08:26:01.103Z,61314.7
2018-02-16T08:27:01.089Z,62893.1
2018-02-16T08:28:01.092Z,63611.0
2018-02-16T08:29:01.307Z,63241.7
2018-02-16T08:30:01.131Z,63109.9
2018-02-16T08:31:01.101Z,63059.9
2018-02-16T08:33:01.092Z,63064.9
2018-02-16T08:35:01.328Z,63210.3
2018-02-16T08:37:01.096Z,63534.7
2018-02-16T08:38:01.102Z,63922.1
2018-02-16T08:41:01.522Z,63976.1
2018-02-16T08:42:01.102Z,63658.8
2018-02-16T08:43:01.125Z,64028.1
2018-02-16T08:44:06.102Z,64414.5
2018-02-16T08:45:01.101Z,64412.0
2018-02-16T08:46:01.300Z,64598.2
2018-02-16T08:57:01.098Z,65056.1
2018-02-16T08:58:01.101Z,65277.7
2018-02-16T08:59:01.346Z,65400.6
2018-02-16T09:00:01.103Z,65013.1
2018-02-16T09:01:02.145Z,64239.1
2018-02-16T09:02:01.102Z,63598.0
2018-02-16T09:03:01.099Z,63102.1
2018-02-16T09:04:01.345Z,62439.5
2018-02-16T09:05:01.105Z,61838.2
2018-02-16T09:06:01.106Z,61254.9
2018-02-16T09:07:01.099Z,61210.1
2018-02-16T09:09:02.497Z,60687.2
2018-02-16T09:10:01.099Z,59715.7
2018-02-16T09:15:01.100Z,60237.7
2018-02-16T09:16:01.109Z,61011.6
2018-02-16T09:17:01.105Z,61652.7
2018-02-16T09:18:01.105Z,62148.6
2018-02-16T09:19:01.550Z,62811.2
2018-02-16T09:20:01.105Z,63412.5
2018-02-16T09:21:01.107Z,63995.9
2018-02-16T09:22:01.170Z,64040.6
2018-02-16T09:24:01.391Z,64563.5
2018-02-16T09:26:01.090Z,65535.0
2018-02-16T09:30:01.424Z,65535.0
2018-02-16T09:45:01.459Z,65535.0
2018-02-16T10:00:06.412Z,65535.0
2018-02-16T10:15:01.355Z,65535.0
2018-02-16T10:30:06.471Z,65535.0
2018-02-16T10:45:01.339Z,65535.0
2018-02-16T11:00:01.466Z,65535.0
2018-02-16T11:15:01.312Z,65535.0
2018-02-16T11:30:01.469Z,65535.0
2018-02-16T11:45:01.462Z,65535.0
2018-02-16T12:00:01.252Z,65535.0
2018-02-16T12:15:02.269Z,65535.0
2018-02-16T12:30:01.258Z,65535.0
2018-02-16T12:45:01.394Z,65535.0
2018-02-16T13:00:01.490Z,65535.0
2018-02-16T13:15:01.121Z,65535.0
2018-02-16T13:30:01.189Z,65535.0
2018-02-16T13:45:01.081Z,65535.0
2018-02-16T14:00:01.212Z,65528.6
2018-02-16T14:01:01.084Z,65070.3
2018-02-16T14:02:01.349Z,64492.4
2018-02-16T14:03:01.112Z,64080.0
2018-02-16T14:04:01.088Z,63823.9
2018-02-16T14:05:01.061Z,63620.3
2018-02-16T14:06:01.092Z,63199.7
2018-02-16T14:07:01.323Z,62714.9
2018-02-16T14:08:01.094Z,62265.9
2018-02-16T14:09:01.089Z,61955.9
2018-02-16T14:15:01.095Z,61962.3
2018-02-16T14:16:01.129Z,62420.7
2018-02-16T14:17:01.376Z,62998.5
2018-02-16T14:18:01.096Z,63410.9
2018-02-16T14:19:01.095Z,63667.1
2018-02-16T14:20:01.124Z,63870.7
2018-02-16T14:21:01.095Z,64291.2
2018-02-16T14:22:01.330Z,64776.0
2018-02-16T14:23:01.091Z,65225.1
2018-02-16T14:24:01.093Z,65535.0
2018-02-16T14:30:01.459Z,65535.0
2018-02-16T14:42:01.354Z,65253.6
2018-02-16T14:43:01.094Z,65010.4
2018-02-16T14:44:01.142Z,64807.6
2018-02-16T14:45:01.096Z,64243.3
2018-02-16T14:46:01.094Z,63413.0
2018-02-16T14:47:01.305Z,62603.5
2018-02-16T14:48:01.093Z,61774.2
2018-02-16T14:49:01.145Z,60719.5
2018-02-16T14:50:01.098Z,59635.1
2018-02-16T14:51:01.126Z,58686.3
2018-02-16T14:52:01.297Z,57607.0
2018-02-16T14:53:01.101Z,56099.3
2018-02-16T14:54:01.126Z,54302.4
2018-02-16T14:55:01.093Z,52422.9
2018-02-16T14:56:01.099Z,50581.9
2018-02-16T14:57:01.301Z,49105.6
2018-02-16T14:58:01.128Z,47516.3
2018-02-16T14:59:01.097Z,45602.9
2018-02-16T15:00:01.103Z,43784.9
2018-02-16T15:01:01.116Z,42032.9
2018-02-16T15:02:01.331Z,40190.8
2018-02-16T15:03:01.125Z,38392.8
2018-02-16T15:04:01.100Z,36895.3
2018-02-16T15:05:01.098Z,35567.2
2018-02-16T15:06:01.096Z,34313.3
2018-02-16T15:08:01.082Z,33721.9
2018-02-16T15:09:01.078Z,33622.9
2018-02-16T15:10:01.084Z,33402.1
2018-02-16T15:11:01.084Z,32963.7
2018-02-16T15:12:01.379Z,32625.5
2018-02-16T15:13:01.089Z,32461.6
2018-02-16T15:14:01.086Z,32635.7
2018-02-16T15:15:01.082Z,33131.3
2018-02-16T15:16:01.054Z,33776.1
2018-02-16T15:17:01.329Z,34517.9
2018-02-16T15:18:01.083Z,35243.3
2018-02-16T15:19:01.096Z,35846.5
2018-02-16T15:20:01.084Z,36299.4
2018-02-16T15:21:01.087Z,36534.3
2018-02-16T15:22:01.329Z,36509.9
2018-02-16T15:23:01.085Z,35941.1
2018-02-16T15:24:01.086Z,35278.9
2018-02-16T15:25:01.090Z,34898.2
2018-02-16T15:26:01.092Z,34598.1
2018-02-16T15:27:01.334Z,33942.3
2018-02-16T15:28:01.087Z,32896.6
2018-02-16T15:29:01.090Z,31587.2
2018-02-16T15:30:01.089Z,30305.9
2018-02-16T15:31:01.092Z,29181.3
2018-02-16T15:32:01.390Z,28171.3
2018-02-16T15:33:01.087Z,27236.7
2018-02-16T15:34:01.089Z,26378.3
2018-02-16T15:35:01.092Z,25593.1
2018-02-16T15:36:01.092Z,24874.6
2018-02-16T15:37:01.413Z,24173.8
2018-02-16T15:38:01.127Z,23458.3
2018-02-16T15:39:01.090Z,22743.7
2018-02-16T15:40:01.087Z,22111.7
2018-02-16T15:41:01.101Z,21656.7
2018-02-16T15:42:01.295Z,21389.7
2018-02-16T15:43:01.122Z,21223.2
2018-02-16T15:44:01.090Z,21033.3
2018-02-16T15:45:01.090Z,20760.0
2018-02-16T15:46:01.096Z,20421.8
2018-02-16T15:47:01.304Z,20016.8
2018-02-16T15:48:01.117Z,19552.8
2018-02-16T15:49:01.089Z,19039.5
2018-02-16T15:50:01.093Z,18455.3
2018-02-16T15:51:01.094Z,17808.3
2018-02-16T15:52:01.327Z,17131.9
2018-02-16T15:53:01.119Z,16435.9
2018-02-16T15:54:01.093Z,15726.5
2018-02-16T15:55:01.093Z,15031.0
2018-02-16T15:56:01.092Z,14358.5
2018-02-16T15:57:01.325Z,13689.9
2018-02-16T15:58:01.137Z,13030.5
2018-02-16T15:59:01.096Z,12370.9
2018-02-16T16:00:01.094Z,11695.7
2018-02-16T16:01:01.098Z,11019.6
2018-02-16T16:02:02.393Z,10379.9
2018-02-16T16:03:01.128Z,9799.1
2018-02-16T16:04:01.096Z,9284.5
2018-02-16T16:05:01.102Z,8830.0
2018-02-16T16:06:01.097Z,8422.8
2018-02-16T16:07:01.301Z,8050.8
2018-02-16T16:08:01.136Z,7698.3
2018-02-16T16:09:01.104Z,7360.9
2018-02-16T16:10:01.095Z,7035.6
2018-02-16T16:11:01.107Z,6715.7
2018-02-16T16:12:01.320Z,6408.9
2018-02-16T16:13:01.138Z,6113.1
2018-02-16T16:15:01.118Z,5826.4
2018-02-16T16:16:01.083Z,5557.7
2018-02-16T16:17:01.288Z,5299.7
2018-02-16T16:18:01.086Z,5052.9
2018-02-16T16:19:01.125Z,4810.0
2018-02-16T16:20:01.080Z,4566.9
2018-02-16T16:21:01.080Z,4330.5
2018-02-16T16:22:01.285Z,4109.9
2018-02-16T16:23:01.080Z,3902.8
2018-02-16T16:24:01.128Z,3711.9
2018-02-16T16:25:01.086Z,3533.3
2018-02-16T16:26:01.081Z,3358.6
2018-02-16T16:27:01.359Z,3186.0
2018-02-16T16:28:01.081Z,3020.9
2018-02-16T16:29:01.056Z,2863.0
2018-02-16T16:30:01.108Z,2712.9
2018-02-16T16:31:01.094Z,2568.1
2018-02-16T16:32:01.289Z,2428.3
2018-02-16T16:33:01.194Z,2287.4
2018-02-16T16:34:01.127Z,2145.1
2018-02-16T16:35:01.123Z,2000.5
2018-02-16T16:36:01.092Z,1854.7
2018-02-16T16:37:01.299Z,1714.1
2018-02-16T16:38:01.151Z,1579.1
2018-02-16T16:39:01.093Z,1449.0
2018-02-16T16:40:01.094Z,1327.5
2018-02-16T16:41:01.125Z,1217.6
2018-02-16T16:42:01.295Z,1114.9
2018-02-16T16:43:01.093Z,1012.9
2018-02-16T16:44:01.087Z,911.8
2018-02-16T16:45:01.085Z,815.3
2018-02-16T16:46:01.092Z,726.3
2018-02-16T16:47:01.329Z,645.3
2018-02-16T16:48:01.090Z,571.9
2018-02-16T16:49:01.133Z,505.1
2018-02-16T16:50:01.087Z,444.7
2018-02-16T16:51:01.089Z,389.8
2018-02-16T16:52:01.333Z,339.7
2018-02-16T16:53:01.094Z,295.6
2018-02-16T16:54:01.091Z,257.2
2018-02-16T16:55:01.091Z,223.8
2018-02-16T16:56:01.090Z,195.1
2018-02-16T16:57:01.365Z,170.9
2018-02-16T16:58:01.092Z,150.1
2018-02-16T16:59:02.130Z,132.1
2018-02-16T17:00:01.090Z,116.3
2018-02-16T17:01:01.092Z,102.4
2018-02-16T17:02:01.372Z,90.1
2018-02-16T17:03:01.097Z,79.0
2018-02-16T17:04:01.130Z,68.8
2018-02-16T17:05:01.103Z,59.5
2018-02-16T17:06:01.098Z,51.6
2018-02-16T17:07:01.327Z,44.9
2018-02-16T17:08:01.096Z,38.8
2018-02-16T17:09:01.097Z,33.3
2018-02-16T17:10:01.166Z,28.4
2018-02-16T17:11:01.098Z,24.1
2018-02-16T17:12:01.335Z,20.3
2018-02-16T17:13:01.097Z,16.9
2018-02-16T17:14:01.095Z,14.1
2018-02-16T17:15:01.134Z,11.7
2018-02-16T17:16:01.108Z,9.7
2018-02-16T17:17:01.312Z,8.0
2018-02-16T17:18:01.162Z,6.6
2018-02-16T17:19:01.172Z,5.5
2018-02-16T17:20:01.139Z,4.5
2018-02-16T17:21:01.100Z,3.7
2018-02-16T17:22:01.311Z,3.1
2018-02-16T17:23:01.101Z,2.5
2018-02-16T17:24:01.103Z,2.1
2018-02-16T17:25:01.137Z,1.9
2018-02-16T17:26:01.111Z,1.7
2018-02-16T17:27:01.334Z,1.4
2018-02-16T17:29:01.156Z,1.2
2018-02-16T17:30:01.090Z,1.0
2018-02-16T17:31:01.110Z,0.9
2018-02-16T17:32:01.088Z,0.7
2018-02-16T17:33:01.291Z,0.6
2018-02-16T17:34:01.086Z,0.5
2018-02-16T17:36:01.115Z,0.4
2018-02-16T17:37:01.085Z,0.3
2018-02-16T17:39:01.092Z,0.2
2018-02-16T17:40:01.089Z,0.1
